Time;durP1;ratioP1;P1;durP2;ratioP2;P2;SDS_P1;SDS_P2;PMS_P1;PMS_P2;Temp;Humidity;BMP_temperature;BMP_pressure;BME280_temperature;BME280_humidity;BME280_pressure;Samples;Min_cycle;Max_cycle;Signal;HPM_P1;HPM_P2
2022/03/20 00:00:11;;;;;;;42.17;24.57;;;4.80;58.20;;;5.26;49.64;98694.75;5025023;28;20275;-38
2022/03/20 00:02:40;;;;;;;34.20;21.40;;;4.80;58.40;;;5.27;49.21;98699.09;5027082;28;20065;-37
2022/03/20 00:05:09;;;;;;;45.23;26.23;;;4.80;58.10;;;5.24;49.46;98699.28;5026248;28;20053;-37
2022/03/20 00:07:38;;;;;;;49.40;27.80;;;4.80;57.80;;;5.24;49.69;98695.81;5025950;28;20139;-39
2022/03/20 00:10:07;;;;;;;42.20;25.13;;;4.80;58.00;;;5.24;49.51;98695.81;5025776;28;20049;-38
2022/03/20 00:12:37;;;;;;;32.23;20.80;;;4.80;57.80;;;5.24;49.77;98688.72;5024896;28;20098;-38
2022/03/20 00:15:07;;;;;;;32.37;18.97;;;4.80;57.90;;;5.22;49.65;98693.28;5025817;28;20461;-38
2022/03/20 00:17:35;;;;;;;25.20;17.27;;;4.70;57.80;;;5.20;49.30;98691.69;5027207;28;20338;-37
2022/03/20 00:20:06;;;;;;;23.83;16.40;;;4.70;57.80;;;5.18;49.00;98688.31;5025645;28;20067;-38
2022/03/20 00:22:36;;;;;;;27.97;18.97;;;4.60;57.90;;;5.14;49.65;98685.03;5025851;28;20061;-38
2022/03/20 00:25:05;;;;;;;27.87;19.33;;;4.60;57.90;;;5.13;49.58;98689.44;5024457;28;20053;-38
2022/03/20 00:27:33;;;;;;;30.17;19.43;;;4.60;57.90;;;5.13;49.67;98681.50;5025404;28;20213;-38
2022/03/20 00:30:02;;;;;;;25.97;17.40;;;4.60;57.80;;;5.11;49.08;98680.78;5023375;28;20075;-38
2022/03/20 00:32:30;;;;;;;24.73;16.77;;;4.60;57.40;;;5.09;49.13;98679.19;5025745;28;20236;-38
2022/03/20 00:34:59;;;;;;;26.20;17.37;;;4.60;57.50;;;5.08;48.69;98672.22;5025003;28;20049;-38
2022/03/20 00:37:29;;;;;;;27.03;18.17;;;4.60;57.50;;;5.06;48.95;98677.59;5025841;28;20052;-38
2022/03/20 00:39:57;;;;;;;24.60;17.27;;;4.50;57.60;;;5.04;48.95;98673.34;5024793;28;20061;-38
2022/03/20 00:42:26;;;;;;;26.77;17.17;;;4.50;57.50;;;5.00;49.37;98671.88;5026125;28;20331;-38
2022/03/20 00:44:54;;;;;;;23.03;17.00;;;4.50;57.20;;;4.99;49.30;98672.84;5025205;28;20117;-37
2022/03/20 00:47:22;;;;;;;24.63;17.17;;;4.50;57.10;;;4.97;49.23;98680.00;5025614;28;20037;-37
2022/03/20 00:49:50;;;;;;;23.77;15.40;;;4.50;56.70;;;4.97;48.60;98677.38;5024834;28;20127;-38
2022/03/20 00:52:18;;;;;;;27.10;16.20;;;4.50;56.80;;;4.95;48.77;98674.81;5025708;28;20075;-38
2022/03/20 00:54:46;;;;;;;22.93;16.17;;;4.40;56.50;;;4.93;49.36;98676.72;5024219;28;20443;-37
2022/03/20 00:57:14;;;;;;;20.17;14.37;;;4.40;56.70;;;4.92;49.17;98672.38;5024307;28;20052;-37
2022/03/20 00:59:42;;;;;;;21.90;16.53;;;4.40;56.40;;;4.89;49.08;98670.78;5025622;28;20049;-38
2022/03/20 01:02:10;;;;;;;26.13;16.37;;;4.40;56.70;;;4.88;48.60;98673.53;5023938;28;20049;-38
2022/03/20 01:04:38;;;;;;;20.00;14.53;;;4.40;56.40;;;4.88;48.47;98669.09;5024251;28;20047;-38
2022/03/20 01:07:06;;;;;;;21.83;14.53;;;4.40;56.30;;;4.88;48.90;98666.44;5024970;28;20045;-38
2022/03/20 01:09:34;;;;;;;19.47;14.00;;;4.40;56.40;;;4.88;48.95;98668.25;5023161;28;20407;-42
2022/03/20 01:12:04;;;;;;;23.47;13.97;;;4.40;56.40;;;4.88;49.18;98662.97;5008358;28;20136;-38
2022/03/20 01:14:33;;;;;;;21.03;14.90;;;4.40;56.70;;;4.87;48.61;98661.28;5024630;28;20121;-38
2022/03/20 01:17:01;;;;;;;20.67;13.43;;;4.40;57.00;;;4.87;48.77;98658.66;5023958;28;20284;-37
2022/03/20 01:19:29;;;;;;;23.10;14.80;;;4.40;56.80;;;4.85;48.50;98655.28;5025752;28;20049;-38
2022/03/20 01:21:56;;;;;;;21.40;13.37;;;4.30;56.50;;;4.81;49.44;98651.97;5024508;28;20063;-39
2022/03/20 01:24:27;;;;;;;22.10;14.90;;;4.30;56.90;;;4.82;48.89;98658.94;5025499;28;20095;-38
2022/03/20 01:26:56;;;;;;;20.00;13.23;;;4.30;56.80;;;4.84;49.07;98656.19;5025115;28;20057;-38
2022/03/20 01:29:24;;;;;;;19.93;14.00;;;4.40;56.90;;;4.83;49.35;98655.38;5024575;28;20049;-38
2022/03/20 01:31:52;;;;;;;20.47;13.17;;;4.30;57.10;;;4.83;49.35;98658.00;5024402;28;20446;-38
2022/03/20 01:34:20;;;;;;;20.83;13.83;;;4.40;56.80;;;4.82;49.17;98647.53;5023814;28;20059;-38
2022/03/20 01:36:48;;;;;;;23.23;15.53;;;4.40;56.80;;;4.85;49.31;98644.72;5025281;28;20236;-38
2022/03/20 01:39:16;;;;;;;23.67;14.93;;;4.40;56.90;;;4.86;48.93;98638.47;5023964;28;20115;-38
2022/03/20 01:41:46;;;;;;;23.80;14.33;;;4.40;56.70;;;4.88;49.30;98634.78;5023854;28;20061;-38
2022/03/20 01:44:14;;;;;;;21.10;13.97;;;4.40;56.70;;;4.89;48.68;98633.84;5024476;28;20084;-38
2022/03/20 01:46:42;;;;;;;21.23;14.10;;;4.40;56.60;;;4.90;48.39;98640.84;5025038;28;20072;-38
2022/03/20 01:49:10;;;;;;;22.17;13.90;;;4.50;56.40;;;4.89;48.42;98628.56;5024433;28;20155;-38
2022/03/20 01:54:24;;;;;;;20.40;12.83;;;4.50;55.80;;;4.95;48.62;98623.84;5023645;28;20049;-38
2022/03/20 01:56:55;;;;;;;19.37;13.37;;;4.60;55.70;;;4.96;48.46;98620.25;5024736;28;20053;-38
2022/03/20 01:59:23;;;;;;;21.13;14.33;;;4.60;55.30;;;4.96;48.75;98620.25;5025226;28;20329;-38
2022/03/20 02:01:51;;;;;;;21.97;14.37;;;4.60;55.40;;;4.96;48.63;98615.78;5024612;28;20048;-38
2022/03/20 02:04:19;;;;;;;23.53;14.20;;;4.60;55.30;;;4.97;48.23;98604.31;5024094;28;20050;-38
2022/03/20 02:06:47;;;;;;;21.13;13.67;;;4.60;55.10;;;4.97;48.30;98608.75;5024315;28;20037;-38
2022/03/20 02:09:16;;;;;;;20.77;14.43;;;4.50;54.80;;;4.95;48.13;98602.72;5025468;28;20059;-38
2022/03/20 02:11:47;;;;;;;21.93;13.93;;;4.50;55.00;;;4.93;48.21;98602.81;5028602;28;20232;-38
2022/03/20 02:14:15;;;;;;;20.60;13.07;;;4.50;55.10;;;4.95;47.58;98600.94;5026673;28;20045;-38
2022/03/20 02:16:44;;;;;;;22.40;14.40;;;4.50;54.70;;;4.98;47.84;98607.78;5024807;28;20364;-37
2022/03/20 02:19:16;;;;;;;24.83;13.27;;;4.60;54.40;;;5.00;47.45;98617.31;5026352;28;20370;-37
2022/03/20 02:21:47;;;;;;;18.17;11.63;;;4.60;53.70;;;4.99;47.34;98612.13;5029542;28;20053;-38
2022/03/20 02:24:34;;;;;;;15.87;11.53;;;4.70;53.20;;;5.03;47.34;98614.44;5027903;28;20244;-38
2022/03/20 02:27:12;;;;;;;20.63;13.60;;;4.70;51.80;;;5.05;47.27;98609.06;5028195;28;20045;-38
2022/03/20 02:29:42;;;;;;;19.67;13.20;;;4.70;52.40;;;5.07;47.41;98615.94;5028058;28;20057;-38
2022/03/20 02:32:13;;;;;;;17.83;12.40;;;4.70;52.10;;;5.11;47.05;98603.38;5028583;28;20053;-37
2022/03/20 02:34:42;;;;;;;19.03;12.27;;;4.80;52.10;;;5.13;47.58;98596.19;5025876;28;20491;-38
2022/03/20 02:37:12;;;;;;;17.33;12.43;;;4.90;52.40;;;5.17;47.45;98592.41;5027912;28;20057;-38
2022/03/20 02:39:40;;;;;;;21.77;13.70;;;4.90;52.10;;;5.21;46.71;98590.41;5026302;28;20057;-38
2022/03/20 02:42:09;;;;;;;19.80;13.20;;;4.90;52.20;;;5.20;47.75;98586.94;5027095;28;20049;-38
2022/03/20 02:45:02;;;;;;;18.47;12.93;;;4.90;52.40;;;5.23;47.19;98583.22;5026947;28;20045;-38
2022/03/20 02:47:38;;;;;;;20.07;13.37;;;4.90;51.40;;;5.22;47.06;98582.38;5027272;28;20060;-38
2022/03/20 02:50:27;;;;;;;18.80;12.00;;;4.90;52.10;;;5.26;47.43;98583.84;5026666;28;20233;-39
2022/03/20 02:52:59;;;;;;;22.90;13.67;;;5.00;52.00;;;5.27;46.80;98588.22;5027991;28;20355;-38
2022/03/20 02:55:30;;;;;;;20.83;13.17;;;4.90;52.40;;;5.28;47.08;98581.13;5027335;28;20041;-38
2022/03/20 02:58:01;;;;;;;20.13;13.00;;;4.90;52.40;;;5.26;46.40;98580.38;5027231;28;20049;-38
2022/03/20 03:00:32;;;;;;;22.50;13.23;;;5.00;52.00;;;5.29;46.65;98585.44;5027484;28;20049;-38
2022/03/20 03:03:02;;;;;;;19.37;13.60;;;5.00;51.80;;;5.32;46.32;98586.06;5027533;28;20056;-38
2022/03/20 03:05:32;;;;;;;23.63;14.20;;;5.10;51.90;;;5.34;45.58;98583.34;5025319;28;20251;-39
2022/03/20 03:10:57;;;;;;;21.30;13.97;;;5.10;51.00;;;5.34;46.43;98583.34;5027263;28;20049;-38
2022/03/20 03:13:39;;;;;;;20.77;13.13;;;5.20;51.40;;;5.39;46.35;98597.09;5027105;28;20060;-38
2022/03/20 03:16:13;;;;;;;22.00;13.63;;;5.20;51.10;;;5.44;46.61;98602.88;5026808;28;20120;-38
2022/03/20 03:18:44;;;;;;;19.67;12.70;;;5.20;51.40;;;5.45;46.39;98599.28;5027668;28;20053;-38
2022/03/20 03:21:16;;;;;;;19.60;12.20;;;5.20;51.40;;;5.39;44.10;98593.56;5026195;28;20261;-38
2022/03/20 03:23:44;;;;;;;19.83;13.67;;;5.30;49.70;;;5.42;46.11;98596.84;5027480;28;20366;-38
2022/03/20 03:26:12;;;;;;;22.57;14.13;;;5.30;51.00;;;5.45;46.38;98598.47;5025574;28;20056;-38
2022/03/20 03:28:40;;;;;;;23.83;13.07;;;5.30;50.90;;;5.46;46.08;98603.59;5025407;28;20052;-38
2022/03/20 03:31:11;;;;;;;19.27;14.00;;;5.30;50.90;;;5.49;45.99;98600.78;5027988;28;20045;-38
2022/03/20 03:36:28;;;;;;;21.13;12.93;;;5.30;50.70;;;5.53;45.61;98602.25;5025312;28;20049;-39
2022/03/20 03:38:56;;;;;;;19.97;13.30;;;5.30;51.00;;;5.56;45.79;98602.97;5027102;28;20045;-38
2022/03/20 03:41:24;;;;;;;20.53;12.97;;;5.30;51.00;;;5.57;46.21;98602.03;5026477;28;20170;-38
2022/03/20 03:43:52;;;;;;;20.30;14.23;;;5.30;50.90;;;5.55;45.81;98604.78;5026960;28;20141;-38
2022/03/20 03:46:20;;;;;;;19.60;13.73;;;5.30;50.60;;;5.57;45.91;98602.88;5026733;28;20351;-38
2022/03/20 03:48:48;;;;;;;25.20;14.20;;;5.30;50.50;;;5.58;45.99;98599.28;5025489;28;20124;-38
2022/03/20 03:51:16;;;;;;;20.17;12.40;;;5.30;50.80;;;5.57;46.35;98600.25;5025930;28;20048;-38
2022/03/20 03:53:44;;;;;;;21.77;14.00;;;5.30;50.70;;;5.58;45.26;98598.44;5025666;28;20060;-38
2022/03/20 03:56:12;;;;;;;21.97;14.83;;;5.30;50.70;;;5.55;45.83;98601.31;5026272;28;20073;-38
2022/03/20 03:58:40;;;;;;;19.93;12.37;;;5.40;50.50;;;5.47;45.18;98588.63;5026482;28;20069;-38
2022/03/20 04:01:09;;;;;;;19.03;14.77;;;5.40;50.70;;;5.48;45.84;98596.44;5025878;28;20045;-38
2022/03/20 04:03:37;;;;;;;21.63;13.33;;;5.40;50.30;;;5.49;46.35;98595.50;5025623;28;20057;-38
2022/03/20 04:06:07;;;;;;;22.70;13.50;;;5.40;50.20;;;5.55;45.43;98591.59;5026600;28;20057;-38
2022/03/20 04:08:36;;;;;;;19.77;12.80;;;5.30;50.30;;;5.57;45.36;98594.13;5026361;28;20042;-38
2022/03/20 04:11:04;;;;;;;19.03;13.27;;;5.30;50.50;;;5.60;45.85;98589.44;5024811;28;20045;-38
2022/03/20 04:13:31;;;;;;;21.37;13.37;;;5.30;50.60;;;5.59;45.06;98582.50;5025456;28;20041;-39
2022/03/20 04:16:00;;;;;;;22.13;14.30;;;5.30;50.40;;;5.59;45.33;98579.00;5026063;28;20354;-38
2022/03/20 04:18:27;;;;;;;18.47;13.00;;;5.40;50.50;;;5.62;45.39;98574.38;5025384;28;20053;-38
2022/03/20 04:20:55;;;;;;;21.20;13.37;;;5.40;50.50;;;5.62;45.39;98584.94;5025498;28;20366;-39
2022/03/20 04:26:10;;;;;;;22.77;14.00;;;5.40;50.20;;;5.65;45.70;98594.44;5026303;28;20529;-38
2022/03/20 04:28:38;;;;;;;17.70;13.40;;;5.40;50.10;;;5.64;44.64;98605.94;5025482;28;20049;-38
2022/03/20 04:31:05;;;;;;;20.33;14.37;;;5.40;50.10;;;5.61;45.39;98603.53;5024232;28;20041;-38
2022/03/20 04:33:33;;;;;;;23.03;13.83;;;5.40;50.20;;;5.56;44.74;98597.69;5025565;28;20037;-37
2022/03/20 04:36:01;;;;;;;22.30;14.20;;;5.40;50.40;;;5.56;45.94;98595.91;5026018;28;20057;-37
2022/03/20 04:38:29;;;;;;;20.33;13.63;;;5.30;50.70;;;5.57;45.25;98602.03;5024675;28;20243;-38
2022/03/20 04:40:57;;;;;;;17.60;12.93;;;5.30;50.90;;;5.56;45.54;98598.53;5026090;28;20075;-38
2022/03/20 04:43:26;;;;;;;23.07;15.40;;;5.20;51.00;;;5.52;45.15;98603.22;5025927;28;20053;-38
2022/03/20 04:45:54;;;;;;;20.83;14.67;;;5.20;51.00;;;5.50;44.89;98602.44;5026711;28;20075;-38
2022/03/20 04:59:29;;;;;;;19.70;13.50;;;5.10;51.50;;;5.48;45.99;98611.44;5023571;28;20127;-39
2022/03/20 05:01:59;;;;;;;20.47;13.70;;;5.10;51.50;;;5.47;45.73;98604.47;5024205;28;20123;-39
2022/03/20 05:04:27;;;;;;;20.97;14.27;;;5.10;51.60;;;5.47;46.10;98596.56;5024257;28;20061;-39
2022/03/20 05:06:55;;;;;;;20.43;14.07;;;5.10;51.70;;;5.44;46.15;98604.69;5023855;28;20049;-38
2022/03/20 05:14:58;;;;;;;22.53;13.90;;;5.20;51.20;;;5.48;46.03;98611.44;5025471;28;20049;-38
2022/03/20 05:17:26;;;;;;;21.93;14.23;;;5.30;51.20;;;5.48;46.41;98607.00;5023548;28;20229;-38
2022/03/20 05:19:54;;;;;;;22.40;14.80;;;5.20;51.10;;;5.49;45.36;98613.97;5024056;28;20056;-38
2022/03/20 05:22:22;;;;;;;28.23;15.20;;;5.20;51.20;;;5.46;45.29;98615.97;5024584;28;20056;-38
2022/03/20 05:24:50;;;;;;;23.43;14.43;;;5.20;51.10;;;5.45;45.49;98611.66;5024834;28;20049;-38
2022/03/20 05:27:18;;;;;;;22.40;13.20;;;5.20;51.10;;;5.43;45.90;98616.19;5025285;28;20275;-38
2022/03/20 05:29:46;;;;;;;23.37;14.80;;;5.20;51.10;;;5.35;46.11;98607.94;5025129;28;20053;-37
2022/03/20 05:32:14;;;;;;;22.33;14.57;;;5.20;51.00;;;5.38;46.06;98608.59;5024695;28;20075;-38
2022/03/20 05:34:42;;;;;;;20.33;14.23;;;5.20;51.20;;;5.44;46.12;98629.28;5007487;28;20056;-38
2022/03/20 05:37:11;;;;;;;25.27;15.37;;;5.20;51.40;;;5.49;46.25;98632.47;5024015;28;20057;-38
2022/03/20 05:39:39;;;;;;;23.63;14.90;;;5.20;51.50;;;5.51;45.86;98643.78;5023671;28;20061;-38
2022/03/20 05:42:07;;;;;;;22.83;15.20;;;5.20;51.70;;;5.51;45.96;98637.66;5024837;28;20152;-38
2022/03/20 05:44:35;;;;;;;23.63;14.50;;;5.20;52.10;;;5.49;46.06;98634.28;5026619;28;20048;-38
2022/03/20 05:47:04;;;;;;;17.83;12.97;;;5.20;52.20;;;5.50;46.44;98638.59;5028253;28;20037;-38
2022/03/20 05:49:32;;;;;;;20.57;13.33;;;5.20;52.20;;;5.40;46.57;98619.88;5028952;28;20049;-38
2022/03/20 05:52:00;;;;;;;24.67;15.77;;;5.20;52.10;;;5.46;46.47;98634.47;5009882;28;20064;-38
2022/03/20 05:54:28;;;;;;;21.20;14.77;;;5.20;52.10;;;5.52;46.76;98642.84;5027423;28;20145;-38
2022/03/20 05:59:48;;;;;;;20.77;14.33;;;5.30;52.60;;;5.56;46.70;98654.00;5036990;28;20067;-39
2022/03/20 06:02:17;;;;;;;25.27;15.63;;;5.30;52.80;;;5.59;46.68;98656.44;5029675;28;20056;-38
2022/03/20 06:04:44;;;;;;;21.23;14.30;;;5.30;52.80;;;5.63;46.52;98662.38;5028646;28;20067;-38
2022/03/20 06:07:12;;;;;;;24.87;13.20;;;5.30;52.90;;;5.59;46.47;98656.44;5028028;28;20053;-37
2022/03/20 06:09:40;;;;;;;23.03;15.70;;;5.40;52.70;;;5.64;46.85;98659.63;5028571;28;20057;-37
2022/03/20 06:12:09;;;;;;;25.03;16.00;;;5.40;52.70;;;5.70;46.76;98666.31;5028846;28;20045;-38
2022/03/20 06:14:37;;;;;;;22.97;14.63;;;5.50;52.80;;;5.73;46.98;98652.84;5028445;28;20151;-38
2022/03/20 06:17:09;;;;;;;23.77;15.90;;;5.50;52.90;;;5.77;46.57;98658.78;5027726;28;20049;-39
2022/03/20 06:19:38;;;;;;;23.03;15.70;;;5.50;53.00;;;5.77;46.99;98656.13;5028658;28;20071;-39
2022/03/20 06:22:06;;;;;;;20.83;14.83;;;5.50;53.00;;;5.81;47.20;98663.72;5027276;28;20052;-39
2022/03/20 06:24:34;;;;;;;26.37;15.73;;;5.50;52.90;;;5.87;46.44;98671.25;5027701;28;20064;-38
2022/03/20 06:27:03;;;;;;;21.30;15.83;;;5.60;52.80;;;5.90;46.42;98673.69;5027736;28;20204;-38
2022/03/20 06:29:30;;;;;;;22.40;14.63;;;5.70;52.90;;;5.98;46.56;98685.56;5028383;28;20079;-39
2022/03/20 06:31:58;;;;;;;25.80;14.70;;;5.70;52.90;;;6.01;47.37;98685.31;5028594;28;20763;-39
2022/03/20 06:34:26;;;;;;;25.37;15.20;;;5.80;52.80;;;6.04;46.83;98680.66;5027796;28;20324;-39
2022/03/20 06:36:57;;;;;;;26.37;16.00;;;5.80;52.70;;;6.09;47.32;98677.72;5027330;28;20246;-39
2022/03/20 06:39:25;;;;;;;25.43;16.37;;;5.90;52.70;;;6.16;47.13;98683.41;5027855;28;20131;-39
2022/03/20 06:41:53;;;;;;;23.17;16.07;;;5.90;52.70;;;6.21;47.03;98690.06;5027338;28;20324;-39
2022/03/20 06:44:21;;;;;;;23.83;15.77;;;6.00;52.60;;;6.20;46.43;98690.16;5027422;28;20125;-39
2022/03/20 06:46:49;;;;;;;24.33;16.10;;;6.20;52.10;;;6.24;46.87;98692.50;5027685;28;20147;-39
2022/03/20 06:49:18;;;;;;;21.80;15.37;;;6.20;52.20;;;6.33;46.90;98688.34;5027038;28;20053;-39
2022/03/20 06:51:46;;;;;;;21.90;14.60;;;6.30;52.00;;;6.38;46.34;98688.00;5027590;28;20045;-39
2022/03/20 06:54:14;;;;;;;27.77;17.50;;;6.40;52.10;;;6.44;47.04;98699.03;5027156;28;20045;-38
2022/03/20 06:56:42;;;;;;;27.33;17.00;;;6.40;52.30;;;6.49;47.32;98699.56;5026667;28;20043;-39
2022/03/20 06:59:14;;;;;;;27.67;17.70;;;6.40;52.50;;;6.55;46.73;98698.25;5028256;28;20049;-39
2022/03/20 07:01:41;;;;;;;24.67;17.03;;;6.40;52.50;;;6.59;47.23;98706.81;5028114;28;20068;-39
2022/03/20 07:04:10;;;;;;;27.50;17.47;;;6.50;52.80;;;6.64;46.73;98713.47;5026853;28;20071;-39
2022/03/20 07:06:38;;;;;;;27.63;17.33;;;6.50;52.90;;;6.64;46.80;98700.22;5028241;28;20071;-39
2022/03/20 07:09:06;;;;;;;26.27;16.87;;;6.60;52.90;;;6.70;47.37;98698.94;5027268;28;20059;-39
2022/03/20 07:11:34;;;;;;;26.07;17.97;;;6.70;53.20;;;6.77;47.24;98702.00;5027446;28;20053;-40
2022/03/20 07:14:02;;;;;;;27.63;17.87;;;6.70;53.20;;;6.82;47.06;98700.69;5027098;28;20395;-38
2022/03/20 07:16:33;;;;;;;29.00;18.20;;;6.80;53.30;;;6.91;47.31;98696.53;5027305;28;20053;-38
2022/03/20 07:19:02;;;;;;;28.73;18.23;;;6.90;53.40;;;6.98;47.80;98695.16;5028124;28;20053;-39
2022/03/20 07:21:32;;;;;;;26.77;18.50;;;7.00;53.20;;;7.05;47.51;98717.53;5026912;28;20228;-40
2022/03/20 07:24:02;;;;;;;24.60;16.43;;;7.10;53.50;;;7.13;47.75;98726.72;5025521;28;20343;-38
2022/03/20 07:29:32;;;;;;;29.03;18.03;;;7.20;52.70;;;7.20;47.26;98728.81;5025814;28;20151;-39
2022/03/20 07:32:06;;;;;;;23.53;16.57;;;7.30;52.90;;;7.25;47.26;98726.69;5025969;28;20055;-39
2022/03/20 07:34:36;;;;;;;26.93;16.97;;;7.40;52.30;;;7.34;47.35;98724.31;5026687;28;20409;-38
2022/03/20 07:37:06;;;;;;;29.37;17.97;;;7.50;52.80;;;7.32;47.59;98719.13;5026940;28;20253;-38
2022/03/20 07:39:35;;;;;;;25.97;16.73;;;7.60;52.60;;;7.39;47.48;98728.31;5026131;28;20057;-38
2022/03/20 07:42:03;;;;;;;23.93;18.13;;;7.60;52.70;;;7.53;47.74;98721.97;5027375;28;20053;-39
2022/03/20 07:44:31;;;;;;;29.80;18.43;;;7.70;52.90;;;7.63;47.60;98727.41;5026502;28;20053;-39
2022/03/20 07:46:59;;;;;;;28.97;18.97;;;7.80;52.80;;;7.66;46.54;98730.69;5026488;28;20151;-39
2022/03/20 07:49:27;;;;;;;27.50;17.87;;;7.90;52.10;;;7.77;47.39;98732.50;5022104;28;20299;-38
2022/03/20 07:51:57;;;;;;;28.30;18.43;;;8.00;52.30;;;7.82;47.12;98726.88;5025461;28;20053;-38
2022/03/20 07:54:26;;;;;;;23.63;17.50;;;8.10;52.40;;;7.91;47.13;98727.94;5025860;28;20041;-39
2022/03/20 07:56:54;;;;;;;25.03;17.63;;;8.10;52.10;;;7.96;46.88;98731.09;5025133;28;20224;-40
2022/03/20 07:59:22;;;;;;;27.43;18.23;;;8.10;52.00;;;8.03;46.78;98727.03;5025629;28;20068;-39
2022/03/20 08:01:50;;;;;;;26.67;18.80;;;8.20;52.10;;;8.08;46.98;98723.06;5023579;28;20061;-39
2022/03/20 08:04:19;;;;;;;24.10;17.43;;;8.30;52.00;;;8.18;47.02;98732.94;5024853;28;20064;-39
2022/03/20 08:06:48;;;;;;;26.60;19.47;;;8.30;52.20;;;8.19;46.95;98724.84;5024989;28;20059;-39
2022/03/20 08:09:15;;;;;;;32.73;18.43;;;8.40;52.10;;;8.26;46.94;98735.84;5025729;28;20049;-39
2022/03/20 08:11:43;;;;;;;27.70;18.23;;;8.40;52.10;;;8.32;46.78;98729.19;5024311;28;20523;-39
2022/03/20 08:14:11;;;;;;;28.17;18.00;;;8.40;52.00;;;8.32;46.57;98732.72;5025883;28;20057;-39
2022/03/20 08:16:39;;;;;;;27.30;18.27;;;8.50;52.00;;;8.41;46.81;98732.03;5024402;28;20053;-39
2022/03/20 08:19:09;;;;;;;27.67;19.17;;;8.60;51.90;;;8.48;46.76;98732.38;5025178;28;20049;-39
2022/03/20 08:21:39;;;;;;;28.17;18.50;;;8.60;51.80;;;8.54;46.87;98736.34;5026150;28;20059;-40
2022/03/20 08:24:07;;;;;;;31.33;19.70;;;8.70;52.00;;;8.60;46.58;98736.69;5024069;28;20053;-39
2022/03/20 08:26:35;;;;;;;26.37;18.97;;;8.80;51.60;;;8.67;46.50;98737.06;5025496;28;20111;-39
2022/03/20 08:29:03;;;;;;;27.00;17.33;;;8.80;51.30;;;8.70;46.34;98733.31;5024104;28;20037;-39
2022/03/20 08:31:34;;;;;;;27.67;19.03;;;8.80;51.30;;;8.72;46.11;98745.50;5024974;28;20050;-38
2022/03/20 08:34:03;;;;;;;28.60;19.43;;;8.80;50.90;;;8.75;46.05;98747.91;5025166;28;20053;-39
2022/03/20 08:36:31;;;;;;;26.07;17.83;;;8.80;50.90;;;8.78;46.04;98754.78;5025554;28;20297;-39
2022/03/20 08:38:58;;;;;;;27.80;18.50;;;8.80;51.00;;;8.79;45.91;98759.97;5024933;28;20064;-39
2022/03/20 08:41:26;;;;;;;27.63;19.67;;;8.80;51.00;;;8.79;45.59;98754.66;5024824;28;20053;-39
2022/03/20 08:43:54;;;;;;;30.30;18.83;;;8.80;50.80;;;8.82;45.64;98750.91;5024946;28;20063;-38
2022/03/20 08:46:23;;;;;;;28.37;18.57;;;8.80;50.70;;;8.84;45.77;98755.16;5024339;28;20079;-38
2022/03/20 08:48:51;;;;;;;25.90;17.30;;;8.80;50.80;;;8.83;44.65;98750.78;5023957;28;20041;-38
2022/03/20 08:51:19;;;;;;;24.10;17.13;;;8.90;50.20;;;8.90;45.38;98761.78;5024068;28;20041;-38
2022/03/20 08:53:48;;;;;;;23.27;16.07;;;9.00;50.20;;;8.91;45.00;98768.78;5024375;28;20087;-38
2022/03/20 08:56:16;;;;;;;24.50;17.00;;;9.00;49.80;;;8.93;44.89;98763.34;5024775;28;20136;-38
2022/03/20 08:58:46;;;;;;;26.77;18.27;;;9.00;49.90;;;8.96;45.14;98763.09;5023205;28;20056;-39
2022/03/20 09:01:20;;;;;;;28.47;19.47;;;9.00;49.80;;;9.03;45.05;98767.81;5032900;28;20257;-39
2022/03/20 09:03:50;;;;;;;26.27;17.43;;;9.10;49.90;;;9.07;44.52;98765.72;5033391;28;20068;-39
2022/03/20 09:06:21;;;;;;;24.87;17.27;;;9.10;49.10;;;9.13;44.67;98772.34;5031793;28;20129;-39
2022/03/20 09:08:50;;;;;;;27.87;17.60;;;9.20;49.40;;;9.19;45.01;98775.38;5033117;28;20234;-39
2022/03/20 09:11:19;;;;;;;26.23;17.10;;;9.30;49.10;;;9.23;43.38;98768.81;5032197;28;20063;-39
2022/03/20 09:13:48;;;;;;;25.30;16.80;;;9.40;48.60;;;9.32;44.28;98780.50;5033651;28;20550;-39
2022/03/20 09:19:06;;;;;;;27.93;17.27;;;9.60;48.90;;;9.49;44.30;98772.97;5029977;28;20284;-39
2022/03/20 09:21:38;;;;;;;24.67;16.27;;;9.70;48.90;;;9.57;43.61;98773.19;5035462;28;20075;-39
2022/03/20 09:24:07;;;;;;;22.13;15.97;;;9.80;48.20;;;9.73;44.48;98773.59;5026344;28;20348;-39
2022/03/20 09:26:34;;;;;;;21.60;15.40;;;10.00;49.00;;;9.91;44.88;98773.88;5024566;28;20072;-39
2022/03/20 09:29:04;;;;;;;25.97;17.27;;;10.20;49.20;;;10.03;44.17;98774.63;5024365;28;20042;-39
2022/03/20 09:31:33;;;;;;;26.70;18.23;;;10.30;48.90;;;10.12;44.16;98771.19;5025160;28;20113;-39
2022/03/20 09:34:01;;;;;;;24.27;17.37;;;10.50;48.00;;;10.26;44.21;98780.66;5024600;28;20054;-39
2022/03/20 09:36:29;;;;;;;24.07;17.00;;;10.60;48.10;;;10.27;44.36;98781.50;5023980;28;20057;-39
2022/03/20 09:38:57;;;;;;;24.10;15.37;;;10.60;48.00;;;10.29;44.37;98785.72;5023664;28;20061;-39
2022/03/20 09:41:30;;;;;;;23.60;16.07;;;10.60;48.00;;;10.35;44.02;98782.56;5025493;28;20053;-39
2022/03/20 09:44:05;;;;;;;23.75;15.35;;;10.60;48.30;;;10.38;44.54;98792.09;5026050;28;20060;-39
2022/03/20 09:46:35;;;;;;;21.07;15.37;;;10.70;48.40;;;10.37;44.67;98788.59;5025135;28;20045;-39
2022/03/20 09:49:06;;;;;;;25.47;15.57;;;10.70;48.70;;;10.39;44.44;98805.28;5024108;28;20057;-38
2022/03/20 09:51:35;;;;;;;21.97;14.90;;;10.70;48.70;;;10.41;44.37;98805.13;5024236;28;20090;-38
2022/03/20 09:54:03;;;;;;;21.00;14.50;;;10.70;48.60;;;10.46;44.58;98813.59;5024199;28;20053;-39
2022/03/20 09:56:32;;;;;;;19.57;14.57;;;10.80;48.90;;;10.52;44.84;98810.38;5024709;28;20223;-39
2022/03/20 09:59:00;;;;;;;25.20;15.07;;;10.80;48.90;;;10.57;44.64;98813.50;5024876;28;20049;-38
2022/03/20 10:01:28;;;;;;;22.77;16.20;;;10.90;49.10;;;10.56;44.29;98813.63;5023298;28;20053;-38
2022/03/20 10:04:15;;;;;;;20.02;14.38;;;10.80;48.60;;;10.60;44.24;98807.06;5022470;28;20057;-38
2022/03/20 10:06:43;;;;;;;21.73;14.97;;;11.00;48.70;;;10.68;44.92;98806.41;5025106;28;20057;-38
2022/03/20 10:09:13;;;;;;;24.47;15.93;;;11.00;49.40;;;10.76;44.66;98815.41;5006351;28;20049;-38
2022/03/20 10:11:51;;;;;;;23.30;16.80;;;11.10;49.60;;;10.82;44.48;98814.03;5024455;28;20216;-39
2022/03/20 10:14:23;;;;;;;23.20;15.40;;;11.20;49.10;;;10.77;45.42;98805.59;5024806;28;20056;-39
2022/03/20 10:17:08;;;;;;;22.20;15.50;;;11.30;49.70;;;10.83;44.94;98811.22;5024386;28;20067;-38
2022/03/20 10:19:36;;;;;;;23.60;14.90;;;11.30;49.30;;;10.99;45.56;98808.06;5024557;28;20670;-38
2022/03/20 10:22:11;;;;;;;21.60;14.30;;;11.40;50.00;;;11.12;45.56;98812.31;5024497;28;20045;-38
2022/03/20 10:24:46;;;;;;;24.95;14.90;;;11.60;50.40;;;11.28;45.68;98803.78;5024347;28;20063;-38
2022/03/20 10:27:14;;;;;;;22.73;13.73;;;11.70;50.60;;;11.42;46.11;98800.75;5023837;28;20075;-39
2022/03/20 10:29:58;;;;;;;21.30;12.80;;;11.90;50.80;;;11.53;45.54;98799.75;5024979;28;20228;-39
2022/03/20 10:32:27;;;;;;;20.88;14.18;;;12.10;50.00;;;11.62;45.76;98797.09;5028677;28;20075;-39
2022/03/20 10:35:01;;;;;;;19.33;14.20;;;12.10;49.90;;;11.69;45.40;98794.72;5027830;28;20123;-39
2022/03/20 10:37:51;;;;;;;18.13;13.93;;;12.20;50.00;;;11.77;45.36;98797.53;5023583;28;20050;-39
2022/03/20 10:40:26;;;;;;;17.95;12.68;;;12.20;49.80;;;11.82;45.05;98795.28;5020437;28;20700;-39
2022/03/20 10:43:26;;;;;;;17.10;12.40;;;12.30;49.70;;;11.90;45.33;98788.41;5008980;28;20065;-39
2022/03/20 10:46:00;;;;;;;18.85;11.40;;;12.40;48.90;;;11.97;44.20;98786.88;5006825;28;20064;-39
2022/03/20 10:48:42;;;;;;;18.10;11.38;;;12.40;48.80;;;12.04;44.32;98798.66;5007091;28;20054;-39
2022/03/20 10:51:10;;;;;;;18.95;12.30;;;12.50;48.30;;;12.07;44.54;98787.69;5008362;28;20050;-39
2022/03/20 10:53:55;;;;;;;19.42;12.50;;;12.50;49.00;;;12.17;43.99;98790.34;5006680;28;20066;-39
2022/03/20 10:56:23;;;;;;;15.88;11.82;;;12.60;48.60;;;12.26;44.52;98794.00;5008178;28;20264;-39
2022/03/20 10:58:51;;;;;;;13.70;9.98;;;12.70;48.70;;;12.32;43.70;98783.56;5008057;28;20050;-39
2022/03/20 11:01:40;;;;;;;16.40;10.30;;;12.80;47.40;;;12.44;42.95;98789.56;5007823;28;20077;-39
2022/03/20 11:04:08;;;;;;;17.67;11.23;;;12.90;46.00;;;12.48;43.47;98795.47;5006747;28;20417;-38